createdAt,value
2018-11-04T00:09:50.191Z,19.73
2018-11-04T00:19:53.621Z,21.75
2018-11-04T00:29:57.742Z,18.97
2018-11-04T00:40:01.051Z,19.23
2018-11-04T00:50:04.924Z,18.37
2018-11-04T01:00:12.415Z,18.47
2018-11-04T01:10:16.001Z,17.77
2018-11-04T01:20:19.350Z,17.83
2018-11-04T01:30:22.771Z,18.30
2018-11-04T01:40:26.171Z,19.90
2018-11-04T01:50:29.687Z,17.87
2018-11-04T02:00:33.105Z,16.10
2018-11-04T02:10:36.596Z,17.33
2018-11-04T02:20:43.095Z,18.13
2018-11-04T02:30:46.720Z,18.23
2018-11-04T02:40:50.242Z,17.70
2018-11-04T02:50:53.632Z,15.97
2018-11-04T03:00:57.007Z,16.30
2018-11-04T03:11:00.363Z,16.80
2018-11-04T03:21:03.737Z,15.90
2018-11-04T03:31:07.215Z,15.67
2018-11-04T03:41:11.338Z,15.00
2018-11-04T03:51:15.595Z,15.43
2018-11-04T04:01:19.057Z,15.08
2018-11-04T04:11:23.061Z,15.73
2018-11-04T04:21:26.517Z,15.93
2018-11-04T04:31:29.936Z,16.17
2018-11-04T04:41:33.288Z,19.60
2018-11-04T04:51:37.869Z,17.07
2018-11-04T05:01:41.370Z,18.20
2018-11-04T05:11:50.518Z,17.97
2018-11-04T05:21:53.934Z,17.77
2018-11-04T05:31:57.287Z,17.87
2018-11-04T05:42:00.743Z,20.23
2018-11-04T05:52:04.186Z,21.97
2018-11-04T06:02:07.683Z,18.80
2018-11-04T06:12:11.010Z,19.87
2018-11-04T06:22:15.588Z,20.40
2018-11-04T06:32:18.958Z,19.93
2018-11-04T06:42:22.482Z,23.53
2018-11-04T06:52:26.526Z,25.47
2018-11-04T07:02:30.032Z,26.93
2018-11-04T07:12:33.373Z,27.57
2018-11-04T07:22:36.854Z,28.57
2018-11-04T07:32:40.468Z,29.37
2018-11-04T07:42:48.351Z,30.23
2018-11-04T07:52:52.702Z,29.43
2018-11-04T08:13:05.908Z,32.33
2018-11-04T08:23:09.474Z,32.87
2018-11-04T08:33:12.937Z,29.23
2018-11-04T08:43:22.022Z,28.40
2018-11-04T08:53:25.427Z,28.60
2018-11-04T09:03:28.839Z,29.00
2018-11-04T09:13:32.335Z,31.33
2018-11-04T09:23:36.294Z,29.15
2018-11-04T09:33:39.871Z,29.27
2018-11-04T09:43:43.321Z,29.70
2018-11-04T09:53:47.687Z,27.67
2018-11-04T10:03:51.038Z,29.83
2018-11-04T10:13:54.874Z,28.23
2018-11-04T10:23:58.768Z,28.27
2018-11-04T10:34:02.251Z,27.47
2018-11-04T10:44:05.676Z,26.50
2018-11-04T10:54:09.592Z,28.73
2018-11-04T11:04:13.047Z,27.90
2018-11-04T11:14:18.391Z,26.48
2018-11-04T11:24:22.629Z,27.00
2018-11-04T11:34:26.152Z,25.93
2018-11-04T11:44:30.226Z,25.03
2018-11-04T11:54:33.865Z,25.60
2018-11-04T12:04:37.280Z,25.60
2018-11-04T12:14:40.880Z,24.97
2018-11-04T12:24:44.408Z,26.47
2018-11-04T12:34:48.563Z,25.63
2018-11-04T12:44:51.977Z,27.13
2018-11-04T12:54:55.817Z,25.00
2018-11-04T13:04:59.334Z,27.00
2018-11-04T13:15:02.808Z,26.20
2018-11-04T13:25:10.360Z,27.83
2018-11-04T13:35:14.186Z,28.23
2018-11-04T13:45:19.097Z,28.07
2018-11-04T13:55:22.611Z,27.93
2018-11-04T14:05:26.337Z,28.47
2018-11-04T14:15:29.744Z,28.07
2018-11-04T14:25:33.198Z,28.30
2018-11-04T14:35:36.662Z,27.73
2018-11-04T14:45:40.846Z,28.77
2018-11-04T14:55:44.196Z,29.73
2018-11-04T15:05:49.395Z,29.00
2018-11-04T15:15:52.928Z,27.30
2018-11-04T15:25:56.846Z,28.67
2018-11-04T15:36:00.225Z,28.83
2018-11-04T15:46:03.957Z,29.77
2018-11-04T15:56:07.304Z,28.73
2018-11-04T16:06:10.720Z,29.03
2018-11-04T16:16:14.087Z,30.00
2018-11-04T16:26:18.924Z,38.30
2018-11-04T16:36:22.460Z,31.23
2018-11-04T16:46:25.840Z,31.93
2018-11-04T16:56:29.286Z,31.10
2018-11-04T17:06:32.949Z,32.43
2018-11-04T17:16:36.339Z,31.73
2018-11-04T17:26:40.444Z,31.55
2018-11-04T17:36:43.940Z,32.77
2018-11-04T17:46:53.324Z,34.33
2018-11-04T17:56:56.689Z,33.30
2018-11-04T18:07:00.073Z,33.43
2018-11-04T18:17:03.712Z,31.85
2018-11-04T18:27:07.074Z,33.47
2018-11-04T18:37:10.450Z,31.95
2018-11-04T18:47:13.852Z,33.53
2018-11-04T18:57:17.387Z,32.77
2018-11-04T19:07:20.964Z,30.13
2018-11-04T19:17:24.349Z,32.20
2018-11-04T19:27:27.840Z,31.13
2018-11-04T19:37:31.401Z,31.33
2018-11-04T19:47:34.706Z,31.20
2018-11-04T19:57:39.084Z,31.13
2018-11-04T20:07:42.679Z,30.00
2018-11-04T20:17:46.753Z,35.87
2018-11-04T20:27:55.471Z,29.60
2018-11-04T20:37:58.931Z,30.00
2018-11-04T20:48:07.568Z,27.90
2018-11-04T20:58:11.113Z,26.33
2018-11-04T21:08:14.424Z,27.83
2018-11-04T21:18:17.853Z,26.50
2018-11-04T21:28:21.560Z,25.55
2018-11-04T21:38:25.264Z,25.00
2018-11-04T21:48:29.141Z,22.70
2018-11-04T21:58:32.596Z,22.10
2018-11-04T22:08:36.022Z,22.83
2018-11-04T22:18:40.019Z,21.83
2018-11-04T22:28:43.829Z,21.77
2018-11-04T22:38:47.206Z,23.63
2018-11-04T22:48:51.322Z,20.87
2018-11-04T22:58:54.698Z,21.07
2018-11-04T23:08:58.534Z,21.57
2018-11-04T23:19:01.912Z,19.57
2018-11-04T23:29:05.321Z,20.37
2018-11-04T23:39:09.598Z,20.40
2018-11-04T23:49:12.942Z,21.77
2018-11-04T23:59:16.317Z,20.77
